createdAt,value
2023-04-23T00:00:13.420Z,2.20
2023-04-23T00:02:40.913Z,2.22
2023-04-23T00:05:07.749Z,1.90
2023-04-23T00:07:34.321Z,2.22
2023-04-23T00:10:01.315Z,2.10
2023-04-23T00:12:29.085Z,2.00
2023-04-23T00:14:55.691Z,2.33
2023-04-23T00:17:22.144Z,1.70
2023-04-23T00:19:48.574Z,1.60
2023-04-23T00:22:16.899Z,1.88
2023-04-23T00:24:43.687Z,1.80
2023-04-23T00:27:10.057Z,1.85
2023-04-23T00:29:36.363Z,1.60
2023-04-23T00:32:03.538Z,1.15
2023-04-23T00:34:29.949Z,1.45
2023-04-23T00:36:56.279Z,1.45
2023-04-23T00:39:22.824Z,1.40
2023-04-23T00:41:49.151Z,1.85
2023-04-23T00:44:15.537Z,2.05
2023-04-23T00:46:42.426Z,2.20
2023-04-23T00:49:08.818Z,2.10
2023-04-23T00:51:35.357Z,1.80
2023-04-23T00:54:01.781Z,2.10
2023-04-23T00:56:28.333Z,2.28
2023-04-23T00:58:54.977Z,2.22
2023-04-23T01:01:21.787Z,2.17
2023-04-23T01:03:49.243Z,2.40
2023-04-23T01:06:16.403Z,2.15
2023-04-23T01:08:43.143Z,1.80
2023-04-23T01:11:09.722Z,1.70
2023-04-23T01:13:36.020Z,1.70
2023-04-23T01:16:02.478Z,1.92
2023-04-23T01:18:29.767Z,2.95
2023-04-23T01:20:56.170Z,2.80
2023-04-23T01:23:22.590Z,2.42
2023-04-23T01:25:49.020Z,2.55
2023-04-23T01:28:15.668Z,2.67
2023-04-23T01:30:43.355Z,3.33
2023-04-23T01:33:10.398Z,3.13
2023-04-23T01:35:36.854Z,3.00
2023-04-23T01:38:04.228Z,3.35
2023-04-23T01:40:30.810Z,3.45
2023-04-23T01:42:57.427Z,2.90
2023-04-23T01:45:24.340Z,3.22
2023-04-23T01:47:50.751Z,2.40
2023-04-23T01:50:17.114Z,2.63
2023-04-23T01:52:44.800Z,2.80
2023-04-23T01:55:11.116Z,2.75
2023-04-23T01:57:37.554Z,2.40
2023-04-23T02:00:08.659Z,2.40
2023-04-23T02:02:35.549Z,2.60
2023-04-23T02:05:04.900Z,2.63
2023-04-23T02:07:31.707Z,2.20
2023-04-23T02:09:58.194Z,2.78
2023-04-23T02:12:25.262Z,2.20
2023-04-23T02:14:52.215Z,1.83
2023-04-23T02:17:20.049Z,1.70
2023-04-23T02:19:46.443Z,1.45
2023-04-23T02:22:12.762Z,2.38
2023-04-23T02:24:39.464Z,1.63
2023-04-23T02:27:06.025Z,1.85
2023-04-23T02:29:32.382Z,1.80
2023-04-23T02:31:58.810Z,2.28
2023-04-23T02:34:25.348Z,2.35
2023-04-23T02:36:52.742Z,3.38
2023-04-23T02:39:19.232Z,2.67
2023-04-23T02:41:45.534Z,2.83
2023-04-23T02:44:11.991Z,2.80
2023-04-23T02:46:38.394Z,2.25
2023-04-23T02:49:06.751Z,2.50
2023-04-23T02:51:33.067Z,3.60
2023-04-23T02:53:59.430Z,3.50
2023-04-23T02:56:26.135Z,3.60
2023-04-23T02:58:52.492Z,3.22
2023-04-23T03:01:19.108Z,3.00
2023-04-23T03:03:45.679Z,3.47
2023-04-23T03:06:12.370Z,2.63
2023-04-23T03:08:38.764Z,3.45
2023-04-23T03:11:05.083Z,2.70
2023-04-23T03:13:31.502Z,2.83
2023-04-23T03:15:57.829Z,3.78
2023-04-23T03:18:24.142Z,3.45
2023-04-23T03:20:50.569Z,2.47
2023-04-23T03:23:16.943Z,2.53
2023-04-23T03:25:43.307Z,2.83
2023-04-23T03:28:09.636Z,2.70
2023-04-23T03:30:36.134Z,2.60
2023-04-23T03:33:02.871Z,2.90
2023-04-23T03:35:29.299Z,3.72
2023-04-23T03:37:55.639Z,3.30
2023-04-23T03:40:22.072Z,3.40
2023-04-23T03:42:48.442Z,4.43
2023-04-23T03:45:16.627Z,4.22
2023-04-23T03:47:43.775Z,3.60
2023-04-23T03:50:10.725Z,3.40
2023-04-23T03:52:37.212Z,2.67
2023-04-23T03:55:03.646Z,2.70
2023-04-23T03:57:30.017Z,3.38
2023-04-23T03:59:56.508Z,2.90
2023-04-23T04:02:23.055Z,3.53
2023-04-23T04:04:51.834Z,3.17
2023-04-23T04:07:18.556Z,2.95
2023-04-23T04:09:46.866Z,2.63
2023-04-23T04:12:13.208Z,2.53
2023-04-23T04:14:40.027Z,2.97
2023-04-23T04:17:06.609Z,2.42
2023-04-23T04:19:33.137Z,2.95
2023-04-23T04:22:00.320Z,2.70
2023-04-23T04:24:27.369Z,2.75
2023-04-23T04:26:54.014Z,3.30
2023-04-23T04:29:21.453Z,3.13
2023-04-23T04:31:48.944Z,2.20
2023-04-23T04:34:15.658Z,1.60
2023-04-23T04:36:42.309Z,2.20
2023-04-23T04:39:09.041Z,1.55
2023-04-23T04:41:36.497Z,1.60
2023-04-23T04:44:02.855Z,1.35
2023-04-23T04:46:29.413Z,1.10
2023-04-23T04:48:55.964Z,0.88
2023-04-23T04:51:22.913Z,0.75
2023-04-23T04:53:49.274Z,0.70
2023-04-23T04:56:15.656Z,0.60
2023-04-23T04:58:41.998Z,0.50
2023-04-23T05:01:09.541Z,1.50
2023-04-23T05:03:37.859Z,3.20
2023-04-23T05:06:04.533Z,2.45
2023-04-23T05:08:30.849Z,2.90
2023-04-23T05:10:57.422Z,2.40
2023-04-23T05:13:23.740Z,2.22
2023-04-23T05:15:50.118Z,1.88
2023-04-23T05:18:16.564Z,2.05
2023-04-23T05:20:43.037Z,1.85
2023-04-23T05:23:09.425Z,1.70
2023-04-23T05:25:35.815Z,2.00
2023-04-23T05:28:02.392Z,1.80
2023-04-23T05:30:28.886Z,2.25
2023-04-23T05:32:55.540Z,2.83
2023-04-23T05:35:22.379Z,3.15
2023-04-23T05:37:48.741Z,2.88
2023-04-23T05:40:15.072Z,2.47
2023-04-23T05:42:41.442Z,2.20
2023-04-23T05:45:09.043Z,2.38
2023-04-23T05:47:35.731Z,2.08
2023-04-23T05:50:02.657Z,2.60
2023-04-23T05:52:31.504Z,2.90
2023-04-23T05:54:57.893Z,3.45
2023-04-23T05:57:24.178Z,3.80
2023-04-23T05:59:50.636Z,4.30
2023-04-23T06:02:17.056Z,3.08
2023-04-23T06:04:43.762Z,3.58
2023-04-23T06:07:10.496Z,3.00
2023-04-23T06:09:36.818Z,3.40
2023-04-23T06:12:03.404Z,3.30
2023-04-23T06:14:29.882Z,3.13
2023-04-23T06:16:56.242Z,3.22
2023-04-23T06:19:25.038Z,2.97
2023-04-23T06:21:51.501Z,2.95
2023-04-23T06:24:17.797Z,2.90
2023-04-23T06:26:44.176Z,3.10
2023-04-23T06:29:10.656Z,3.00
2023-04-23T06:31:37.027Z,3.20
2023-04-23T06:34:03.755Z,3.33
2023-04-23T06:36:30.065Z,3.03
2023-04-23T06:38:56.459Z,3.35
2023-04-23T06:41:22.923Z,3.90
2023-04-23T06:43:49.324Z,3.17
2023-04-23T06:46:15.771Z,3.50
2023-04-23T06:48:42.106Z,3.20
2023-04-23T06:51:08.461Z,3.65
2023-04-23T06:53:34.927Z,3.45
2023-04-23T06:56:01.222Z,2.95
2023-04-23T06:58:31.397Z,3.20
2023-04-23T07:01:01.613Z,3.55
2023-04-23T07:03:28.185Z,3.67
2023-04-23T07:05:55.021Z,2.67
2023-04-23T07:08:21.622Z,3.85
2023-04-23T07:10:48.582Z,3.15
2023-04-23T07:13:15.363Z,2.72
2023-04-23T07:15:42.429Z,3.47
2023-04-23T07:18:09.228Z,3.90
2023-04-23T07:20:35.554Z,3.40
2023-04-23T07:23:04.158Z,3.28
2023-04-23T07:25:31.316Z,3.60
2023-04-23T07:27:57.669Z,2.40
2023-04-23T07:30:24.838Z,3.40
2023-04-23T07:32:51.190Z,3.33
2023-04-23T07:35:17.639Z,3.05
2023-04-23T07:37:44.022Z,3.53
2023-04-23T07:40:10.581Z,3.70
2023-04-23T07:42:36.887Z,3.35
2023-04-23T07:45:03.459Z,3.58
2023-04-23T07:47:29.950Z,2.83
2023-04-23T07:49:56.265Z,3.05
2023-04-23T07:52:22.714Z,3.03
2023-04-23T07:54:49.077Z,3.72
2023-04-23T07:57:16.315Z,3.40
2023-04-23T07:59:43.270Z,3.38
2023-04-23T08:02:10.047Z,3.03
2023-04-23T08:04:36.665Z,3.00
2023-04-23T08:07:03.859Z,3.65
2023-04-23T08:09:30.244Z,3.33
2023-04-23T08:11:57.589Z,3.35
2023-04-23T08:14:23.959Z,3.75
2023-04-23T08:16:50.282Z,3.25
2023-04-23T08:19:17.170Z,3.30
2023-04-23T08:21:43.539Z,2.92
2023-04-23T08:24:10.098Z,2.88
2023-04-23T08:26:36.564Z,2.88
2023-04-23T08:29:03.260Z,3.03
2023-04-23T08:31:29.818Z,3.13
2023-04-23T08:33:56.466Z,3.08
2023-04-23T08:36:22.912Z,2.30
2023-04-23T08:38:49.313Z,2.65
2023-04-23T08:41:17.558Z,2.20
2023-04-23T08:43:46.709Z,1.80
2023-04-23T08:46:14.845Z,1.98
2023-04-23T08:48:41.764Z,2.15
2023-04-23T08:51:12.884Z,1.83
2023-04-23T08:53:40.737Z,1.95
2023-04-23T08:56:08.149Z,2.13
2023-04-23T08:58:35.225Z,2.13
2023-04-23T09:01:01.739Z,2.42
2023-04-23T09:03:29.039Z,1.80
2023-04-23T09:05:56.070Z,1.80
2023-04-23T09:08:22.506Z,1.77
2023-04-23T09:10:50.379Z,1.88
2023-04-23T09:13:16.869Z,1.80
2023-04-23T09:15:45.858Z,2.00
2023-04-23T09:18:12.313Z,1.50
2023-04-23T09:20:38.752Z,2.13
2023-04-23T09:23:09.048Z,2.17
2023-04-23T09:25:36.616Z,1.98
2023-04-23T09:28:07.538Z,2.33
2023-04-23T09:30:38.847Z,2.65
2023-04-23T09:33:05.555Z,2.10
2023-04-23T09:35:32.832Z,2.60
2023-04-23T09:37:59.409Z,2.20
2023-04-23T09:40:27.078Z,1.60
2023-04-23T09:42:54.928Z,1.80
2023-04-23T09:45:21.555Z,1.92
2023-04-23T09:47:54.954Z,1.50
2023-04-23T09:50:41.641Z,1.60
2023-04-23T09:53:08.982Z,1.48
2023-04-23T09:55:39.624Z,1.30
2023-04-23T09:58:07.263Z,1.20
2023-04-23T10:00:35.167Z,1.50
2023-04-23T10:03:01.937Z,1.55
2023-04-23T10:05:34.189Z,1.48
2023-04-23T10:08:07.688Z,2.15
2023-04-23T10:10:38.250Z,2.42
2023-04-23T10:13:09.942Z,2.60
2023-04-23T10:15:36.505Z,2.10
2023-04-23T10:18:04.138Z,2.15
2023-04-23T10:20:31.049Z,2.25
2023-04-23T10:22:57.502Z,3.22
2023-04-23T10:25:24.400Z,2.55
2023-04-23T10:27:54.282Z,2.13
2023-04-23T10:30:21.709Z,2.25
2023-04-23T10:32:51.507Z,1.75
2023-04-23T10:35:18.082Z,2.90
2023-04-23T10:37:44.876Z,2.60
2023-04-23T10:40:14.194Z,2.42
2023-04-23T10:42:41.255Z,2.72
2023-04-23T10:45:24.283Z,2.55
2023-04-23T10:47:53.173Z,3.20
2023-04-23T10:50:20.760Z,3.78
2023-04-23T10:52:51.352Z,2.78
2023-04-23T10:55:19.063Z,3.00
2023-04-23T10:58:02.004Z,2.45
2023-04-23T11:00:41.930Z,2.53
2023-04-23T11:03:27.536Z,2.13
2023-04-23T11:05:54.359Z,2.13
2023-04-23T11:08:20.738Z,2.10
2023-04-23T11:10:57.972Z,2.67
2023-04-23T11:13:25.202Z,2.15
2023-04-23T11:16:10.508Z,2.45
2023-04-23T11:18:55.804Z,1.70
2023-04-23T11:21:22.406Z,1.70
2023-04-23T11:23:48.756Z,1.73
2023-04-23T11:26:18.096Z,1.70
2023-04-23T11:28:44.895Z,1.10
2023-04-23T11:31:11.177Z,1.90
2023-04-23T11:33:38.643Z,1.52
2023-04-23T11:36:05.411Z,1.88
2023-04-23T11:38:33.602Z,1.65
2023-04-23T11:41:02.387Z,1.30
2023-04-23T11:43:29.432Z,1.60
2023-04-23T11:45:56.338Z,1.92
2023-04-23T11:48:23.838Z,1.52
2023-04-23T11:50:50.594Z,1.40
2023-04-23T11:53:17.104Z,1.40
2023-04-23T11:55:45.857Z,1.83
2023-04-23T11:58:12.341Z,1.60
2023-04-23T12:00:38.746Z,1.75
2023-04-23T12:03:06.447Z,1.30
2023-04-23T12:05:37.409Z,1.40
2023-04-23T12:08:09.112Z,1.20
2023-04-23T12:10:41.788Z,1.45
2023-04-23T12:13:12.989Z,1.63
2023-04-23T12:15:50.322Z,1.55
2023-04-23T12:18:17.136Z,1.40
2023-04-23T12:20:44.068Z,1.30
2023-04-23T12:23:10.703Z,1.27
2023-04-23T12:25:37.239Z,1.38
2023-04-23T12:28:04.955Z,1.33
2023-04-23T12:30:34.262Z,1.50
2023-04-23T12:33:01.177Z,1.25
2023-04-23T12:35:49.664Z,1.17
2023-04-23T12:38:23.884Z,1.30
2023-04-23T12:40:50.968Z,1.30
2023-04-23T12:43:17.371Z,1.30
2023-04-23T12:45:45.241Z,1.25
2023-04-23T12:48:12.094Z,0.88
2023-04-23T12:50:39.036Z,1.02
2023-04-23T12:53:05.417Z,1.10
2023-04-23T12:55:31.711Z,0.90
2023-04-23T12:57:58.482Z,0.80
2023-04-23T13:00:24.930Z,1.20
2023-04-23T13:02:51.625Z,0.90
2023-04-23T13:05:18.170Z,0.70
2023-04-23T13:07:44.462Z,0.90
2023-04-23T13:10:11.029Z,0.80
2023-04-23T13:12:37.429Z,0.90
2023-04-23T13:15:04.946Z,1.30
2023-04-23T13:17:32.091Z,1.08
2023-04-23T13:19:59.096Z,0.90
2023-04-23T13:22:28.962Z,1.20
2023-04-23T13:24:59.322Z,0.73
2023-04-23T13:27:26.225Z,0.90
2023-04-23T13:29:52.549Z,1.17
2023-04-23T13:32:20.594Z,1.05
2023-04-23T13:34:48.911Z,1.00
2023-04-23T13:37:15.506Z,1.00
2023-04-23T13:39:42.061Z,0.85
2023-04-23T13:42:10.017Z,0.80
2023-04-23T13:44:36.690Z,1.40
2023-04-23T13:47:03.278Z,0.80
2023-04-23T13:49:29.630Z,0.90
2023-04-23T13:52:00.302Z,0.60
2023-04-23T13:54:29.521Z,1.00
2023-04-23T13:56:56.038Z,1.20
2023-04-23T13:59:22.577Z,0.88
2023-04-23T14:01:50.168Z,0.90
2023-04-23T14:04:17.331Z,0.95
2023-04-23T14:06:43.701Z,1.20
2023-04-23T14:09:10.676Z,1.10
2023-04-23T14:11:39.441Z,0.90
2023-04-23T14:14:05.781Z,1.10
2023-04-23T14:16:32.249Z,1.08
2023-04-23T14:18:58.858Z,1.20
2023-04-23T14:21:25.247Z,1.08
2023-04-23T14:23:55.564Z,0.70
2023-04-23T14:26:46.719Z,1.05
2023-04-23T14:29:19.233Z,1.02
2023-04-23T14:31:45.581Z,1.08
2023-04-23T14:34:12.079Z,1.30
2023-04-23T14:36:39.050Z,1.10
2023-04-23T14:39:05.578Z,1.00
2023-04-23T14:41:32.566Z,1.20
2023-04-23T14:44:02.423Z,1.08
2023-04-23T14:46:29.199Z,1.08
2023-04-23T14:48:55.709Z,1.33
2023-04-23T14:51:22.063Z,1.10
2023-04-23T14:53:48.448Z,1.00
2023-04-23T14:56:15.023Z,1.00
2023-04-23T14:58:41.941Z,1.25
2023-04-23T15:01:08.674Z,0.88
2023-04-23T15:03:35.780Z,0.60
2023-04-23T15:06:03.487Z,1.00
2023-04-23T15:08:29.850Z,0.95
2023-04-23T15:10:56.308Z,1.02
2023-04-23T15:13:25.609Z,1.10
2023-04-23T15:15:56.715Z,1.00
2023-04-23T15:18:23.186Z,0.90
2023-04-23T15:20:49.734Z,0.90
2023-04-23T15:23:16.525Z,1.33
2023-04-23T15:25:43.000Z,1.40
2023-04-23T15:28:09.334Z,1.33
2023-04-23T15:30:35.752Z,1.40
2023-04-23T15:33:02.208Z,1.70
2023-04-23T15:35:28.708Z,1.33
2023-04-23T15:37:55.086Z,1.20
2023-04-23T15:40:21.468Z,1.65
2023-04-23T15:42:49.831Z,1.30
2023-04-23T15:45:17.132Z,1.50
2023-04-23T15:47:43.669Z,1.08
2023-04-23T15:50:10.819Z,1.40
2023-04-23T15:52:37.642Z,1.70
2023-04-23T15:55:04.865Z,1.40
2023-04-23T15:57:31.906Z,1.42
2023-04-23T16:00:00.809Z,1.30
2023-04-23T16:02:27.447Z,1.30
2023-04-23T16:04:54.073Z,0.90
2023-04-23T16:07:20.457Z,1.23
2023-04-23T16:09:46.870Z,1.30
2023-04-23T16:12:13.227Z,1.27
2023-04-23T16:14:40.451Z,1.52
2023-04-23T16:17:07.157Z,1.30
2023-04-23T16:19:33.932Z,1.70
2023-04-23T16:22:00.382Z,1.48
2023-04-23T16:24:26.739Z,1.70
2023-04-23T16:26:53.184Z,1.50
2023-04-23T16:29:22.487Z,1.80
2023-04-23T16:31:49.882Z,1.85
2023-04-23T16:34:16.723Z,1.75
2023-04-23T16:36:43.103Z,1.52
2023-04-23T16:39:09.470Z,1.38
2023-04-23T16:41:36.423Z,1.38
2023-04-23T16:44:02.784Z,1.60
2023-04-23T16:46:30.946Z,1.63
2023-04-23T16:48:58.129Z,1.10
2023-04-23T16:51:24.797Z,1.65
2023-04-23T16:53:51.310Z,2.10
2023-04-23T16:56:17.734Z,1.80
2023-04-23T16:58:44.162Z,1.45
2023-04-23T17:01:10.949Z,1.52
2023-04-23T17:03:39.058Z,1.60
2023-04-23T17:06:10.072Z,1.00
2023-04-23T17:08:39.381Z,1.10
2023-04-23T17:11:06.455Z,1.00
2023-04-23T17:13:33.554Z,1.20
2023-04-23T17:16:00.032Z,1.40
2023-04-23T17:18:26.849Z,1.40
2023-04-23T17:20:53.737Z,1.60
2023-04-23T17:23:20.144Z,2.08
2023-04-23T17:25:46.989Z,1.52
2023-04-23T17:28:13.430Z,1.90
2023-04-23T17:30:39.820Z,1.60
2023-04-23T17:33:06.211Z,1.67
2023-04-23T17:35:32.705Z,1.58
2023-04-23T17:37:59.028Z,1.40
2023-04-23T17:40:25.384Z,1.58
2023-04-23T17:42:51.948Z,1.75
2023-04-23T17:45:18.706Z,1.45
2023-04-23T17:47:45.664Z,1.65
2023-04-23T17:50:12.483Z,1.65
2023-04-23T17:52:41.165Z,2.03
2023-04-23T17:55:08.499Z,2.13
2023-04-23T17:57:35.254Z,2.10
2023-04-23T18:00:09.255Z,2.00
2023-04-23T18:02:40.172Z,1.58
2023-04-23T18:05:10.469Z,1.73
2023-04-23T18:07:37.289Z,1.75
2023-04-23T18:10:04.156Z,1.83
2023-04-23T18:12:30.911Z,1.92
2023-04-23T18:14:57.610Z,1.50
2023-04-23T18:17:24.310Z,1.45
2023-04-23T18:19:51.435Z,1.40
2023-04-23T18:22:17.859Z,1.60
2023-04-23T18:24:44.442Z,1.70
2023-04-23T18:27:11.253Z,1.88
2023-04-23T18:29:37.723Z,1.92
2023-04-23T18:32:04.471Z,1.80
2023-04-23T18:34:33.168Z,1.80
2023-04-23T18:37:02.120Z,2.05
2023-04-23T18:39:32.242Z,1.83
2023-04-23T18:41:59.231Z,1.65
2023-04-23T18:44:26.666Z,1.73
2023-04-23T18:50:42.269Z,2.50
2023-04-23T18:53:08.610Z,1.90
2023-04-23T18:55:35.076Z,1.50
2023-04-23T18:58:01.605Z,1.48
2023-04-23T19:00:28.009Z,1.50
2023-04-23T19:02:54.420Z,1.30
2023-04-23T19:05:21.034Z,1.40
2023-04-23T19:07:48.393Z,1.30
2023-04-23T19:10:16.237Z,0.98
2023-04-23T19:12:43.802Z,1.20
2023-04-23T19:15:11.046Z,1.30
2023-04-23T19:17:38.502Z,1.45
2023-04-23T19:20:06.288Z,1.63
2023-04-23T19:22:32.653Z,1.45
2023-04-23T19:24:58.995Z,1.40
2023-04-23T19:27:26.621Z,1.40
2023-04-23T19:29:54.501Z,1.35
2023-04-23T19:32:22.115Z,1.30
2023-04-23T19:34:48.542Z,1.60
2023-04-23T19:37:14.830Z,1.55
2023-04-23T19:39:41.466Z,1.35
2023-04-23T19:42:08.026Z,1.52
2023-04-23T19:44:34.357Z,1.05
2023-04-23T19:47:01.195Z,1.40
2023-04-23T19:49:27.814Z,1.30
2023-04-23T19:51:54.806Z,1.20
2023-04-23T19:54:22.786Z,1.27
2023-04-23T19:56:50.583Z,1.20
2023-04-23T19:59:20.813Z,1.10
2023-04-23T20:01:47.532Z,1.45
2023-04-23T20:04:14.525Z,1.30
2023-04-23T20:06:41.228Z,1.15
2023-04-23T20:09:07.813Z,0.90
2023-04-23T20:11:35.231Z,0.90
2023-04-23T20:14:01.761Z,1.10
2023-04-23T20:16:31.017Z,1.05
2023-04-23T20:18:57.832Z,1.20
2023-04-23T20:21:24.806Z,1.17
2023-04-23T20:23:51.395Z,0.93
2023-04-23T20:26:18.243Z,0.90
2023-04-23T20:28:46.413Z,0.90
2023-04-23T20:31:12.765Z,0.93
2023-04-23T20:33:39.185Z,0.70
2023-04-23T20:36:06.704Z,0.80
2023-04-23T20:38:33.195Z,0.90
2023-04-23T20:41:02.597Z,1.13
2023-04-23T20:43:29.563Z,0.80
2023-04-23T20:45:56.384Z,0.90
2023-04-23T20:48:25.328Z,0.85
2023-04-23T20:50:52.433Z,0.82
2023-04-23T20:53:18.919Z,0.60
2023-04-23T20:55:45.365Z,0.70
2023-04-23T20:58:11.767Z,0.90
2023-04-23T21:00:38.258Z,0.70
2023-04-23T21:03:05.901Z,0.60
2023-04-23T21:05:32.523Z,0.70
2023-04-23T21:07:59.002Z,0.80
2023-04-23T21:10:25.768Z,0.68
2023-04-23T21:12:52.396Z,0.60
2023-04-23T21:15:18.902Z,0.60
2023-04-23T21:17:45.325Z,0.55
2023-04-23T21:20:11.840Z,0.60
2023-04-23T21:22:38.344Z,0.60
2023-04-23T21:25:04.891Z,0.63
2023-04-23T21:27:31.325Z,0.60
2023-04-23T21:30:04.793Z,0.70
2023-04-23T21:32:31.247Z,0.50
2023-04-23T21:34:57.587Z,0.50
2023-04-23T21:37:23.986Z,0.55
2023-04-23T21:39:50.356Z,0.65
2023-04-23T21:42:16.717Z,0.60
2023-04-23T21:44:43.021Z,0.80
2023-04-23T21:47:09.447Z,0.55
2023-04-23T21:49:35.905Z,0.70
2023-04-23T21:52:02.352Z,0.60
2023-04-23T21:54:28.973Z,0.70
2023-04-23T21:56:55.735Z,0.55
2023-04-23T21:59:23.536Z,0.38
2023-04-23T22:01:49.902Z,0.40
2023-04-23T22:04:17.778Z,0.35
2023-04-23T22:06:46.453Z,0.30
2023-04-23T22:09:13.535Z,0.30
2023-04-23T22:14:06.392Z,0.70
2023-04-23T22:16:34.253Z,0.60
2023-04-23T22:19:00.688Z,0.50
2023-04-23T22:21:28.304Z,0.50
2023-04-23T22:23:54.708Z,0.50
2023-04-23T22:26:21.607Z,0.50
2023-04-23T22:28:48.037Z,0.50
2023-04-23T22:31:14.383Z,0.70
2023-04-23T22:33:40.674Z,0.50
2023-04-23T22:36:07.154Z,0.60
2023-04-23T22:38:33.656Z,0.50
2023-04-23T22:41:00.014Z,0.40
2023-04-23T22:43:26.561Z,0.40
2023-04-23T22:45:53.099Z,0.40
2023-04-23T22:48:19.492Z,0.40
2023-04-23T22:50:45.855Z,0.47
2023-04-23T22:53:12.552Z,1.25
2023-04-23T22:55:39.418Z,0.63
2023-04-23T22:58:05.697Z,0.52
2023-04-23T23:00:32.208Z,0.60
2023-04-23T23:02:58.632Z,0.50
2023-04-23T23:05:25.143Z,0.60
2023-04-23T23:07:51.854Z,0.70
2023-04-23T23:10:21.496Z,1.00
2023-04-23T23:12:49.606Z,1.02
2023-04-23T23:15:16.035Z,1.10
2023-04-23T23:17:42.470Z,1.20
2023-04-23T23:20:09.163Z,1.00
2023-04-23T23:22:36.072Z,1.17
2023-04-23T23:25:02.531Z,1.08
2023-04-23T23:27:28.865Z,1.40
2023-04-23T23:29:57.830Z,1.10
2023-04-23T23:32:24.198Z,1.52
2023-04-23T23:34:50.774Z,1.35
2023-04-23T23:37:17.500Z,1.42
2023-04-23T23:39:44.054Z,1.45
2023-04-23T23:42:10.848Z,1.13
2023-04-23T23:44:37.535Z,1.10
2023-04-23T23:47:04.153Z,1.30
2023-04-23T23:49:30.697Z,1.08
2023-04-23T23:51:57.030Z,1.17
2023-04-23T23:54:23.368Z,1.00
2023-04-23T23:56:49.680Z,0.88
2023-04-23T23:59:15.994Z,1.05
